Time;durP1;ratioP1;P1;durP2;ratioP2;P2;SDS_P1;SDS_P2;PMS_P1;PMS_P2;Temp;Humidity;BMP_temperature;BMP_pressure;BME280_temperature;BME280_humidity;BME280_pressure;Samples;Min_cycle;Max_cycle;Signal;HPM_P1;HPM_P2
2022/10/10 00:02:25;;;;;;;8.38;4.82;;;7.00;99.90;;;;;;5096910;28;20033;-71
2022/10/10 00:04:52;;;;;;;13.13;4.45;;;6.90;99.90;;;;;;5097045;28;20101;-71
2022/10/10 00:07:19;;;;;;;9.07;4.30;;;6.90;99.90;;;;;;5096859;28;20048;-72
2022/10/10 00:09:45;;;;;;;12.35;4.13;;;6.90;99.90;;;;;;5096629;28;20036;-73
2022/10/10 00:12:11;;;;;;;6.95;3.97;;;6.80;99.90;;;;;;5096831;28;20040;-73
2022/10/10 00:14:37;;;;;;;7.68;4.60;;;6.80;99.90;;;;;;5096758;28;20096;-72
2022/10/10 00:17:02;;;;;;;10.05;4.68;;;6.70;99.90;;;;;;5096677;28;20090;-71
2022/10/10 00:19:28;;;;;;;7.53;4.63;;;6.70;99.90;;;;;;5096476;28;20145;-72
2022/10/10 00:21:53;;;;;;;6.30;4.10;;;6.70;99.90;;;;;;5096542;28;20058;-72
2022/10/10 00:24:19;;;;;;;7.63;3.67;;;6.70;99.90;;;;;;5096339;28;20044;-71
2022/10/10 00:26:44;;;;;;;6.90;3.65;;;6.70;99.90;;;;;;5096466;28;20113;-73
2022/10/10 00:29:10;;;;;;;6.15;3.75;;;6.70;99.90;;;;;;5096565;28;20051;-72
2022/10/10 00:31:36;;;;;;;6.30;3.85;;;6.60;99.90;;;;;;5096228;28;20071;-71
2022/10/10 00:34:01;;;;;;;8.23;4.30;;;6.60;99.90;;;;;;5096656;28;20079;-73
2022/10/10 00:36:27;;;;;;;11.07;4.57;;;6.60;99.90;;;;;;5095770;28;20044;-72
2022/10/10 00:38:52;;;;;;;10.20;4.70;;;6.50;99.90;;;;;;5096249;28;20048;-72
2022/10/10 00:41:18;;;;;;;6.82;4.50;;;6.60;99.90;;;;;;5096208;28;20044;-72
2022/10/10 00:44:04;;;;;;;6.68;4.00;;;6.50;99.90;;;;;;5096349;28;20123;-72
2022/10/10 00:46:30;;;;;;;7.93;4.47;;;6.50;99.90;;;;;;5078458;28;20361;-72
2022/10/10 00:48:56;;;;;;;8.25;4.55;;;6.50;99.90;;;;;;5095778;28;20036;-71
2022/10/10 00:51:21;;;;;;;7.40;4.68;;;6.70;99.90;;;;;;5061924;28;20051;-72
2022/10/10 00:53:51;;;;;;;9.20;4.82;;;6.50;99.90;;;;;;5095891;28;20352;-72
2022/10/10 00:56:24;;;;;;;8.88;4.40;;;6.60;99.90;;;;;;5078210;28;20361;-71
2022/10/10 00:58:52;;;;;;;7.40;4.07;;;6.50;99.90;;;;;;5062258;28;20089;-71
2022/10/10 01:01:18;;;;;;;9.25;4.13;;;6.50;99.90;;;;;;5095402;28;20194;-71
2022/10/10 01:03:44;;;;;;;7.32;4.93;;;6.50;99.90;;;;;;5095692;28;20089;-71
2022/10/10 01:06:10;;;;;;;8.60;4.88;;;6.50;99.90;;;;;;5095848;28;20059;-71
2022/10/10 01:08:36;;;;;;;6.95;4.93;;;6.50;99.90;;;;;;5095950;28;20048;-73
2022/10/10 01:11:36;;;;;;;6.60;4.32;;;6.50;99.90;;;;;;5095618;28;20117;-72
2022/10/10 01:14:15;;;;;;;11.63;4.90;;;6.40;99.90;;;;;;5050659;28;20447;-72
2022/10/10 01:16:49;;;;;;;6.57;4.22;;;6.50;99.90;;;;;;5095401;28;20055;-72
2022/10/10 01:19:27;;;;;;;8.63;4.45;;;6.40;99.90;;;;;;5095302;28;20395;-71
2022/10/10 01:22:16;;;;;;;7.63;5.07;;;6.50;99.90;;;;;;5095410;28;20076;-71
2022/10/10 01:25:15;;;;;;;6.28;4.10;;;6.50;99.90;;;;;;5095482;28;20105;-71
2022/10/10 01:27:46;;;;;;;9.57;5.38;;;6.50;99.90;;;;;;5055780;28;20467;-72
2022/10/10 01:30:19;;;;;;;7.25;4.63;;;6.50;99.90;;;;;;5077883;28;20044;-72
2022/10/10 01:32:56;;;;;;;8.85;4.90;;;6.50;99.90;;;;;;5075012;28;20059;-73
2022/10/10 01:35:34;;;;;;;8.23;4.95;;;6.50;99.90;;;;;;5075617;28;20110;-71
2022/10/10 01:38:08;;;;;;;6.60;5.13;;;6.50;99.90;;;;;;5045020;28;20093;-72
2022/10/10 01:40:59;;;;;;;7.32;4.80;;;6.50;99.90;;;;;;5095723;28;20364;-73
2022/10/10 01:43:25;;;;;;;8.02;4.82;;;6.60;99.90;;;;;;5095259;28;20052;-71
2022/10/10 01:45:52;;;;;;;10.50;4.90;;;6.40;99.90;;;;;;5095360;28;20051;-71
2022/10/10 01:48:23;;;;;;;7.55;4.75;;;6.50;99.90;;;;;;5095359;28;20063;-71
2022/10/10 01:51:07;;;;;;;6.05;4.82;;;6.50;99.90;;;;;;5095328;28;20040;-73
2022/10/10 01:54:07;;;;;;;27.35;5.65;;;6.50;99.90;;;;;;5094937;28;20040;-72
2022/10/10 01:56:47;;;;;;;7.78;4.85;;;6.60;99.90;;;;;;5009411;28;20376;-73
2022/10/10 01:59:30;;;;;;;8.68;4.97;;;6.60;99.90;;;;;;5042821;28;20092;-71
2022/10/10 02:02:07;;;;;;;12.95;5.18;;;6.70;99.90;;;;;;5077344;28;20048;-72
2022/10/10 02:04:56;;;;;;;8.25;5.28;;;6.60;99.90;;;;;;5094982;28;20098;-71
2022/10/10 02:07:56;;;;;;;6.68;4.72;;;6.70;99.90;;;;;;5094806;28;20036;-72
2022/10/10 02:10:27;;;;;;;10.50;5.15;;;6.70;99.90;;;;;;5094743;28;20076;-71
2022/10/10 02:12:54;;;;;;;6.38;4.65;;;6.70;99.90;;;;;;5095072;28;20042;-71
2022/10/10 02:15:23;;;;;;;8.68;4.90;;;6.70;99.90;;;;;;5095294;28;20043;-71
2022/10/10 02:17:50;;;;;;;8.13;5.07;;;6.90;99.90;;;;;;5094822;28;20040;-71
2022/10/10 02:20:20;;;;;;;10.85;5.35;;;6.60;99.90;;;;;;5095105;28;20040;-71
2022/10/10 02:22:47;;;;;;;11.45;6.25;;;6.60;99.90;;;;;;5094875;28;20040;-71
2022/10/10 02:25:13;;;;;;;9.05;5.35;;;6.60;99.90;;;;;;5094868;28;20036;-71
2022/10/10 02:27:58;;;;;;;9.52;6.18;;;6.60;99.90;;;;;;5094778;28;20197;-72
2022/10/10 02:30:24;;;;;;;11.40;5.93;;;6.60;99.90;;;;;;5094729;28;20041;-71
2022/10/10 02:32:57;;;;;;;8.15;5.50;;;6.60;99.90;;;;;;5094839;28;20047;-71
2022/10/10 02:35:31;;;;;;;11.35;5.72;;;6.50;99.90;;;;;;5095906;28;20348;-72
2022/10/10 02:37:58;;;;;;;7.75;5.63;;;6.50;99.90;;;;;;5098251;28;20052;-72
2022/10/10 02:40:28;;;;;;;10.40;5.40;;;6.50;99.90;;;;;;5080888;28;20048;-73
2022/10/10 02:42:56;;;;;;;13.73;5.93;;;6.50;99.90;;;;;;5098576;28;20342;-72
2022/10/10 02:45:22;;;;;;;10.70;7.20;;;6.50;99.90;;;;;;5098296;28;20040;-71
2022/10/10 02:47:47;;;;;;;11.48;5.32;;;6.60;99.90;;;;;;5098418;28;20075;-72
2022/10/10 02:50:13;;;;;;;11.45;5.80;;;6.60;99.90;;;;;;5098240;28;20440;-71
2022/10/10 02:52:39;;;;;;;9.10;5.45;;;6.60;99.90;;;;;;5098017;28;20047;-72
2022/10/10 02:55:05;;;;;;;8.57;6.00;;;6.60;99.90;;;;;;5098416;28;20056;-72
2022/10/10 02:57:30;;;;;;;7.88;5.90;;;6.60;99.90;;;;;;5098316;28;20371;-71
2022/10/10 02:59:56;;;;;;;8.23;5.70;;;6.60;99.90;;;;;;5098005;28;20089;-71
2022/10/10 03:02:22;;;;;;;10.48;6.45;;;6.60;99.90;;;;;;5080956;28;20083;-73
2022/10/10 03:04:47;;;;;;;11.10;6.47;;;6.60;99.90;;;;;;5098035;28;20360;-72
2022/10/10 03:07:13;;;;;;;9.25;6.30;;;6.60;99.90;;;;;;5097683;28;20177;-71
2022/10/10 03:09:38;;;;;;;9.60;6.35;;;6.60;99.90;;;;;;5080530;28;20048;-71
2022/10/10 03:12:04;;;;;;;9.63;6.85;;;6.60;99.90;;;;;;5098783;28;20052;-71
2022/10/10 03:14:30;;;;;;;7.72;5.45;;;6.70;99.90;;;;;;5098614;28;20467;-72
2022/10/10 03:16:55;;;;;;;10.13;5.97;;;6.70;99.90;;;;;;5098095;28;20047;-71
2022/10/10 03:19:21;;;;;;;8.27;6.03;;;6.70;99.90;;;;;;5080180;28;20105;-71
2022/10/10 03:21:47;;;;;;;12.32;5.80;;;6.70;99.90;;;;;;5097126;28;20036;-72
2022/10/10 03:24:12;;;;;;;12.02;6.68;;;6.70;99.90;;;;;;5097304;28;20048;-71
2022/10/10 03:26:38;;;;;;;8.70;5.65;;;6.70;99.90;;;;;;5097631;28;20044;-72
2022/10/10 03:29:04;;;;;;;13.88;6.47;;;6.70;99.90;;;;;;5079628;28;20044;-71
2022/10/10 03:31:30;;;;;;;8.52;6.38;;;6.70;99.90;;;;;;5097363;28;20040;-72
2022/10/10 03:33:56;;;;;;;11.95;6.70;;;6.70;99.90;;;;;;5097549;28;20072;-71
2022/10/10 03:36:22;;;;;;;11.95;6.53;;;6.70;99.90;;;;;;5063267;28;20173;-72
2022/10/10 03:38:47;;;;;;;11.52;6.10;;;6.60;99.90;;;;;;5079472;28;20048;-71
2022/10/10 03:41:13;;;;;;;11.40;6.60;;;6.80;99.90;;;;;;5098134;28;20105;-72
2022/10/10 03:43:38;;;;;;;7.50;5.57;;;6.60;99.90;;;;;;5097111;28;20440;-72
2022/10/10 03:46:04;;;;;;;13.75;6.80;;;6.60;99.90;;;;;;5096792;28;20052;-72
2022/10/10 03:48:30;;;;;;;9.50;6.85;;;6.70;99.90;;;;;;5097848;28;20040;-72
2022/10/10 03:50:55;;;;;;;10.73;6.93;;;6.70;99.90;;;;;;5079598;28;20329;-72
2022/10/10 03:53:21;;;;;;;11.90;6.97;;;6.70;99.90;;;;;;5097161;28;20334;-72
2022/10/10 03:55:47;;;;;;;10.75;6.70;;;6.70;99.90;;;;;;5097418;28;20131;-72
2022/10/10 03:58:12;;;;;;;11.38;7.03;;;6.70;99.90;;;;;;5097170;28;20059;-71
2022/10/10 04:00:38;;;;;;;11.82;7.05;;;6.70;99.90;;;;;;5099949;28;20047;-70
2022/10/10 04:03:05;;;;;;;13.20;7.20;;;6.70;99.90;;;;;;5057173;28;20056;-71
2022/10/10 04:05:35;;;;;;;9.80;7.00;;;6.70;99.90;;;;;;5037136;28;20069;-71
2022/10/10 04:08:02;;;;;;;8.00;5.93;;;6.80;99.90;;;;;;5054325;28;20115;-72
2022/10/10 04:10:28;;;;;;;12.63;7.03;;;6.70;99.90;;;;;;5051263;28;20497;-69
2022/10/10 04:12:53;;;;;;;10.02;6.72;;;6.70;99.90;;;;;;5035113;28;20060;-70
2022/10/10 04:15:19;;;;;;;11.88;7.35;;;6.70;99.90;;;;;;5034943;28;20420;-69
2022/10/10 04:17:44;;;;;;;12.48;7.13;;;6.60;99.90;;;;;;5033905;28;20961;-70
2022/10/10 04:20:10;;;;;;;10.13;7.15;;;6.60;99.90;;;;;;5034491;28;20162;-71
2022/10/10 04:22:35;;;;;;;8.90;6.88;;;6.70;99.90;;;;;;5017964;28;20061;-69
2022/10/10 04:25:01;;;;;;;10.18;7.13;;;6.70;99.90;;;;;;5021322;28;20390;-70
2022/10/10 04:27:27;;;;;;;9.85;7.00;;;6.70;99.90;;;;;;5049851;28;20049;-69
2022/10/10 04:29:52;;;;;;;10.23;7.40;;;6.70;99.90;;;;;;5054426;28;20052;-70
2022/10/10 04:32:18;;;;;;;11.10;7.55;;;6.60;99.90;;;;;;5037403;28;20497;-70
2022/10/10 04:34:43;;;;;;;19.95;7.13;;;6.60;99.90;;;;;;5087661;28;20048;-69
2022/10/10 04:37:09;;;;;;;10.75;7.25;;;6.70;99.90;;;;;;5096403;28;20143;-69
2022/10/10 04:39:34;;;;;;;10.05;6.85;;;6.70;99.90;;;;;;5046829;28;20086;-69
2022/10/10 04:42:03;;;;;;;10.18;6.75;;;6.70;99.90;;;;;;5073905;28;20080;-69
2022/10/10 04:44:29;;;;;;;9.23;7.22;;;6.70;99.90;;;;;;5075758;28;20036;-71
2022/10/10 04:46:54;;;;;;;11.88;8.18;;;6.60;99.90;;;;;;5075907;28;20395;-70
2022/10/10 04:49:20;;;;;;;10.23;7.47;;;6.60;99.90;;;;;;5076206;28;20049;-71
2022/10/10 04:51:45;;;;;;;9.95;7.03;;;6.60;99.90;;;;;;5075923;28;20361;-72
2022/10/10 04:54:12;;;;;;;13.20;7.90;;;6.60;99.90;;;;;;5075780;28;20345;-71
2022/10/10 04:56:39;;;;;;;14.00;7.97;;;6.60;99.90;;;;;;5058666;28;20076;-70
2022/10/10 04:59:05;;;;;;;9.90;7.60;;;6.60;99.90;;;;;;5075209;28;20099;-71
2022/10/10 05:01:31;;;;;;;13.35;7.68;;;6.50;99.90;;;;;;5057709;28;20045;-69
2022/10/10 05:03:58;;;;;;;14.05;8.52;;;6.50;99.90;;;;;;5075827;28;20105;-70
2022/10/10 05:06:23;;;;;;;11.43;7.07;;;6.50;99.90;;;;;;5057928;28;20044;-71
2022/10/10 05:08:49;;;;;;;16.85;8.43;;;6.50;99.90;;;;;;5075264;28;20354;-70
2022/10/10 05:11:14;;;;;;;12.20;7.95;;;6.80;99.90;;;;;;5076328;28;20110;-73
2022/10/10 05:13:40;;;;;;;13.02;8.82;;;6.50;99.90;;;;;;5075635;28;20087;-70
2022/10/10 05:16:06;;;;;;;13.25;8.65;;;6.50;99.90;;;;;;5091630;28;20055;-71
2022/10/10 05:18:31;;;;;;;12.40;8.23;;;6.50;99.90;;;;;;5095462;28;20372;-70
2022/10/10 05:20:57;;;;;;;12.43;8.85;;;6.70;99.90;;;;;;5095548;28;20040;-72
2022/10/10 05:23:22;;;;;;;11.73;8.85;;;6.40;99.90;;;;;;5095584;28;20044;-71
2022/10/10 05:25:50;;;;;;;13.10;9.00;;;6.40;99.90;;;;;;5095451;28;20044;-70
2022/10/10 05:28:16;;;;;;;10.80;7.60;;;6.40;99.90;;;;;;5095115;28;20048;-71
2022/10/10 05:30:44;;;;;;;11.23;7.57;;;6.40;99.90;;;;;;5043577;28;20043;-69
2022/10/10 05:33:10;;;;;;;11.07;7.80;;;6.40;99.90;;;;;;5095081;28;20051;-70
2022/10/10 05:35:36;;;;;;;10.23;8.48;;;6.40;99.90;;;;;;5077758;28;20131;-71
2022/10/10 05:38:01;;;;;;;10.30;8.00;;;6.40;99.90;;;;;;5094545;28;20048;-70
2022/10/10 05:40:27;;;;;;;14.25;8.65;;;6.50;99.90;;;;;;5043370;28;20097;-70
2022/10/10 05:42:53;;;;;;;17.55;8.07;;;6.50;99.90;;;;;;5077566;28;20044;-72
2022/10/10 05:45:18;;;;;;;11.38;7.90;;;6.50;99.90;;;;;;5085640;28;20099;-71
2022/10/10 05:47:44;;;;;;;9.63;7.25;;;6.50;99.90;;;;;;5074771;28;20037;-71
2022/10/10 05:50:24;;;;;;;11.27;7.45;;;6.50;99.90;;;;;;5075643;28;20059;-71
2022/10/10 05:52:50;;;;;;;13.35;8.43;;;6.50;99.90;;;;;;5057442;28;20063;-71
2022/10/10 05:55:15;;;;;;;12.77;8.35;;;6.50;99.90;;;;;;5074902;28;20036;-70
2022/10/10 05:57:41;;;;;;;10.75;8.07;;;6.50;99.90;;;;;;5074749;28;20123;-70
2022/10/10 06:00:07;;;;;;;12.27;7.45;;;6.50;99.90;;;;;;5075125;28;20040;-70
2022/10/10 06:02:33;;;;;;;13.07;7.75;;;6.50;99.90;;;;;;5088174;28;20078;-70
2022/10/10 06:04:59;;;;;;;11.98;8.02;;;6.50;99.90;;;;;;5094710;28;20044;-70
2022/10/10 06:07:24;;;;;;;12.60;8.80;;;6.50;99.90;;;;;;5094815;28;20044;-70
2022/10/10 06:09:50;;;;;;;13.73;8.88;;;6.50;99.90;;;;;;5096339;28;20071;-71
2022/10/10 06:12:16;;;;;;;12.95;9.13;;;6.50;99.90;;;;;;5098932;28;20047;-70
2022/10/10 06:14:41;;;;;;;14.68;8.73;;;6.50;99.90;;;;;;5098901;28;20487;-72
2022/10/10 06:17:07;;;;;;;13.85;8.25;;;6.50;99.90;;;;;;5099100;28;20044;-71
2022/10/10 06:19:32;;;;;;;12.23;8.57;;;6.60;99.90;;;;;;5082647;28;20055;-72
2022/10/10 06:21:58;;;;;;;14.55;9.40;;;6.60;99.90;;;;;;5078962;28;20041;-70
2022/10/10 06:24:23;;;;;;;14.40;8.32;;;6.60;99.90;;;;;;5078317;28;20045;-70
2022/10/10 06:26:49;;;;;;;11.55;7.97;;;6.60;99.90;;;;;;5078548;28;20048;-71
2022/10/10 06:29:15;;;;;;;11.55;7.68;;;6.60;99.90;;;;;;5078471;28;20118;-71
2022/10/10 06:31:40;;;;;;;10.30;7.90;;;6.60;99.90;;;;;;5060866;28;20047;-71
2022/10/10 06:34:06;;;;;;;11.50;8.32;;;6.70;99.90;;;;;;5078504;28;20417;-72
2022/10/10 06:36:32;;;;;;;17.55;9.02;;;6.70;99.90;;;;;;5078058;28;20087;-71
2022/10/10 06:38:58;;;;;;;15.48;9.23;;;6.70;99.90;;;;;;5078099;28;20052;-71
2022/10/10 06:41:23;;;;;;;15.32;9.65;;;6.70;99.90;;;;;;5078049;28;20098;-72
2022/10/10 06:43:50;;;;;;;14.50;8.93;;;6.70;99.90;;;;;;5060602;28;20056;-72
2022/10/10 06:46:16;;;;;;;14.45;8.95;;;6.70;99.90;;;;;;5078391;28;20037;-69
2022/10/10 06:48:42;;;;;;;12.77;8.80;;;6.80;99.90;;;;;;5077976;28;20457;-69
2022/10/10 06:51:12;;;;;;;14.70;9.25;;;6.90;99.90;;;;;;5086765;28;20048;-71
2022/10/10 06:53:37;;;;;;;12.50;8.90;;;6.90;99.90;;;;;;5081305;28;20440;-70
2022/10/10 06:56:04;;;;;;;11.85;8.23;;;7.00;99.90;;;;;;5098119;28;20044;-70
2022/10/10 06:58:30;;;;;;;15.38;8.70;;;7.00;99.90;;;;;;5098221;28;20063;-71
2022/10/10 07:00:59;;;;;;;11.65;8.73;;;7.00;99.90;;;;;;5098800;28;20433;-70
2022/10/10 07:03:26;;;;;;;15.25;9.40;;;7.20;99.90;;;;;;5098320;28;20048;-71
2022/10/10 07:05:55;;;;;;;15.50;8.93;;;7.20;99.90;;;;;;5088634;28;20182;-70
2022/10/10 07:08:20;;;;;;;12.77;8.45;;;7.40;99.90;;;;;;5077394;28;20048;-71
2022/10/10 07:10:46;;;;;;;14.55;9.07;;;7.50;99.90;;;;;;5087907;28;20471;-70
2022/10/10 07:13:13;;;;;;;13.02;8.60;;;7.60;99.90;;;;;;5098246;28;20040;-69
2022/10/10 07:15:39;;;;;;;13.98;9.15;;;7.70;99.90;;;;;;5097803;28;20051;-70
2022/10/10 07:18:05;;;;;;;11.57;8.38;;;7.80;99.90;;;;;;5097330;28;20127;-72
2022/10/10 07:20:30;;;;;;;17.25;9.50;;;7.90;99.90;;;;;;5097490;28;20040;-68
2022/10/10 07:22:56;;;;;;;11.70;8.32;;;8.00;99.90;;;;;;5079157;28;20048;-69
2022/10/10 07:25:22;;;;;;;14.85;9.57;;;8.10;99.90;;;;;;5088213;28;20055;-70
2022/10/10 07:27:48;;;;;;;15.38;8.65;;;8.20;99.90;;;;;;5077583;28;20055;-68
2022/10/10 07:30:14;;;;;;;16.65;8.68;;;8.20;99.90;;;;;;5078017;28;20345;-69
2022/10/10 07:32:39;;;;;;;15.68;8.85;;;8.50;99.90;;;;;;5077416;28;20127;-69
2022/10/10 07:35:05;;;;;;;12.27;8.20;;;8.40;99.90;;;;;;5077983;28;20045;-67
2022/10/10 07:37:31;;;;;;;14.68;8.90;;;8.50;99.90;;;;;;5077535;28;20049;-69
2022/10/10 07:39:57;;;;;;;12.65;7.78;;;8.60;99.90;;;;;;5062201;28;20066;-68
2022/10/10 07:42:22;;;;;;;12.48;7.68;;;8.60;99.90;;;;;;5079249;28;20127;-69
2022/10/10 07:44:48;;;;;;;13.45;8.57;;;8.60;99.90;;;;;;5097459;28;20189;-71
2022/10/10 07:47:14;;;;;;;11.05;8.68;;;8.60;99.90;;;;;;5097987;28;20364;-69
2022/10/10 07:49:39;;;;;;;17.42;8.90;;;8.60;99.90;;;;;;5079076;28;20139;-71
2022/10/10 07:52:05;;;;;;;13.85;8.95;;;8.60;99.90;;;;;;5097522;28;20048;-72
2022/10/10 07:54:31;;;;;;;15.48;8.75;;;8.70;99.90;;;;;;5097093;28;20055;-69
2022/10/10 07:56:57;;;;;;;12.75;9.02;;;8.70;99.90;;;;;;5096712;28;20036;-68
2022/10/10 07:59:23;;;;;;;12.65;8.82;;;8.80;99.90;;;;;;5097185;28;20052;-68
2022/10/10 08:01:50;;;;;;;11.15;8.55;;;8.90;99.90;;;;;;5097194;28;20105;-68
2022/10/10 08:04:16;;;;;;;15.50;8.60;;;9.00;99.90;;;;;;5097593;28;20089;-71
2022/10/10 08:06:41;;;;;;;10.77;8.25;;;9.00;99.90;;;;;;5096610;28;20101;-70
2022/10/10 08:09:07;;;;;;;11.35;8.35;;;9.20;99.90;;;;;;5096575;28;20379;-70
2022/10/10 08:11:33;;;;;;;11.98;8.60;;;9.20;99.90;;;;;;5080444;28;20052;-70
2022/10/10 08:13:58;;;;;;;12.38;8.50;;;9.30;99.90;;;;;;5058843;28;20055;-71
2022/10/10 08:16:24;;;;;;;14.20;8.30;;;9.40;99.90;;;;;;5058985;28;20310;-70
2022/10/10 08:18:50;;;;;;;10.82;8.40;;;9.50;99.90;;;;;;5087219;28;20048;-72
2022/10/10 08:21:16;;;;;;;12.63;8.48;;;9.60;99.90;;;;;;5093280;28;20055;-69
2022/10/10 08:23:42;;;;;;;10.68;7.78;;;9.60;99.90;;;;;;5078537;28;20053;-68
2022/10/10 08:26:09;;;;;;;11.85;8.50;;;9.70;99.90;;;;;;5076726;28;20123;-69
2022/10/10 08:28:36;;;;;;;16.70;8.90;;;9.80;99.90;;;;;;5088743;28;20051;-68
2022/10/10 08:31:05;;;;;;;12.85;8.45;;;9.90;99.90;;;;;;5076050;28;20087;-71
2022/10/10 08:33:31;;;;;;;13.77;8.80;;;10.00;99.90;;;;;;5075805;28;20041;-71
2022/10/10 08:35:57;;;;;;;18.38;8.50;;;10.10;99.90;;;;;;5087028;28;20459;-72
2022/10/10 08:38:22;;;;;;;13.82;8.63;;;10.20;99.90;;;;;;5095937;28;20091;-71
2022/10/10 08:40:59;;;;;;;12.23;7.78;;;10.40;99.90;;;;;;5095367;28;20052;-72
2022/10/10 08:43:46;;;;;;;15.32;8.25;;;10.50;99.90;;;;;;5096040;28;20044;-71
2022/10/10 08:46:39;;;;;;;12.73;8.32;;;10.60;99.90;;;;;;5095936;28;20146;-70
2022/10/10 08:49:34;;;;;;;10.77;7.00;;;10.70;99.90;;;;;;5096253;28;20411;-71
2022/10/10 08:52:12;;;;;;;16.75;7.90;;;10.80;99.90;;;;;;5094854;28;20047;-71
2022/10/10 08:54:39;;;;;;;12.20;8.10;;;10.90;99.90;;;;;;5080230;28;20051;-71
2022/10/10 08:57:23;;;;;;;13.50;8.13;;;11.00;99.90;;;;;;5095422;28;20131;-72
2022/10/10 08:59:49;;;;;;;11.90;8.00;;;11.10;99.90;;;;;;5095644;28;20055;-70
2022/10/10 09:02:50;;;;;;;12.90;8.50;;;11.20;99.90;;;;;;5095914;28;20074;-72
2022/10/10 09:05:33;;;;;;;10.00;7.53;;;11.40;99.90;;;;;;5051977;28;20056;-70
2022/10/10 09:07:59;;;;;;;;;;;11.40;99.90;;;;;;5071134;28;20048;-71
2022/10/10 09:10:35;;;;;;;11.75;7.95;;;11.50;99.90;;;;;;5075750;28;19920;-71
2022/10/10 09:13:34;;;;;;;11.57;7.28;;;11.60;99.90;;;;;;5089913;28;20062;-73
2022/10/10 09:16:20;;;;;;;12.90;7.93;;;11.60;99.90;;;;;;5075251;28;20392;-73
2022/10/10 09:19:12;;;;;;;10.60;7.50;;;11.60;99.90;;;;;;5081292;28;20081;-72
2022/10/10 09:21:40;;;;;;;13.20;7.40;;;11.70;99.90;;;;;;5082862;28;20036;-71
2022/10/10 09:24:31;;;;;;;13.27;7.80;;;11.80;99.90;;;;;;5074319;28;20045;-71
2022/10/10 09:27:05;;;;;;;13.18;7.63;;;11.80;99.90;;;;;;5057368;28;20122;-73
2022/10/10 09:30:12;;;;;;;12.35;7.32;;;12.00;99.90;;;;;;5075382;28;20075;-71
2022/10/10 09:32:49;;;;;;;11.40;7.82;;;12.00;99.90;;;;;;5077224;28;20451;-72
2022/10/10 09:35:21;;;;;;;11.20;7.32;;;12.20;99.90;;;;;;5094543;28;20090;-73
2022/10/10 09:38:10;;;;;;;12.35;7.47;;;12.30;99.90;;;;;;5094663;28;20048;-68
2022/10/10 09:40:41;;;;;;;10.25;7.25;;;12.50;99.90;;;;;;5095012;28;20470;-72
2022/10/10 09:43:16;;;;;;;12.63;7.40;;;12.60;99.90;;;;;;5095039;28;20448;-72
2022/10/10 09:45:52;;;;;;;13.15;8.07;;;12.70;99.90;;;;;;5093738;28;20475;-71
2022/10/10 09:48:20;;;;;;;11.85;7.25;;;12.80;99.90;;;;;;5094553;28;20546;-72
2022/10/10 09:50:46;;;;;;;11.10;7.72;;;12.90;99.90;;;;;;5095510;28;20036;-71
2022/10/10 09:53:14;;;;;;;11.65;7.10;;;13.00;99.90;;;;;;5084940;28;20047;-71
2022/10/10 09:55:40;;;;;;;10.32;7.38;;;13.10;99.90;;;;;;5074896;28;20120;-71
2022/10/10 09:58:36;;;;;;;11.60;7.10;;;13.20;99.90;;;;;;5074835;28;20128;-72
2022/10/10 10:01:19;;;;;;;12.77;7.75;;;13.20;99.90;;;;;;5074879;28;20040;-71
2022/10/10 10:04:07;;;;;;;9.23;6.57;;;13.30;99.90;;;;;;5083756;28;20036;-70
2022/10/10 10:06:32;;;;;;;12.10;7.32;;;13.30;99.90;;;;;;5074654;28;20305;-70
2022/10/10 10:09:05;;;;;;;14.13;8.10;;;13.30;99.90;;;;;;5074538;28;20044;-70
2022/10/10 10:11:33;;;;;;;15.02;7.90;;;13.30;99.90;;;;;;5094433;28;20460;-71
2022/10/10 10:14:01;;;;;;;11.35;7.28;;;13.30;99.90;;;;;;5094694;28;20048;-71
2022/10/10 10:16:45;;;;;;;10.73;7.15;;;13.40;99.90;;;;;;5094748;28;20126;-70
2022/10/10 10:19:30;;;;;;;;;;;13.40;99.90;;;;;;5095116;28;20032;-70
2022/10/10 10:21:56;;;;;;;9.35;6.43;;;13.40;99.90;;;;;;5082769;28;20028;-70
2022/10/10 10:24:28;;;;;;;14.82;6.80;;;13.50;99.90;;;;;;5094977;28;20087;-71
2022/10/10 10:26:54;;;;;;;9.73;6.80;;;13.60;99.90;;;;;;5094681;28;20044;-73
2022/10/10 10:29:33;;;;;;;9.68;6.32;;;13.70;99.90;;;;;;5094735;28;20044;-71
2022/10/10 10:32:29;;;;;;;11.65;7.82;;;13.90;99.90;;;;;;5094044;28;20043;-70
2022/10/10 10:34:55;;;;;;;9.80;5.97;;;14.00;99.90;;;;;;5094244;28;20069;-71
2022/10/10 10:37:29;;;;;;;9.02;5.88;;;14.10;99.90;;;;;;5086969;28;20052;-70
2022/10/10 10:40:16;;;;;;;11.23;6.68;;;14.20;99.90;;;;;;5074568;28;20151;-72
2022/10/10 10:42:56;;;;;;;9.77;6.53;;;14.40;99.90;;;;;;5073906;28;20032;-72
2022/10/10 10:45:27;;;;;;;8.63;6.25;;;14.60;99.90;;;;;;5078622;28;20082;-71
2022/10/10 10:48:11;;;;;;;13.07;6.32;;;14.60;99.90;;;;;;5056829;28;20463;-71
2022/10/10 10:50:51;;;;;;;9.75;5.82;;;14.70;99.90;;;;;;5074193;28;20064;-71
2022/10/10 10:53:43;;;;;;;8.00;5.95;;;14.80;99.90;;;;;;5074004;28;20120;-70
2022/10/10 10:56:21;;;;;;;7.78;5.30;;;14.90;99.90;;;;;;5074402;28;20357;-70
2022/10/10 10:59:22;;;;;;;8.80;4.88;;;14.90;99.90;;;;;;5060203;28;20413;-73
2022/10/10 11:02:07;;;;;;;12.40;5.40;;;15.00;99.90;;;;;;5077222;28;20110;-72
2022/10/10 11:05:01;;;;;;;9.02;4.97;;;15.00;99.90;;;;;;5077870;28;20408;-73
2022/10/10 11:07:48;;;;;;;10.02;5.05;;;15.10;99.90;;;;;;5077590;28;20044;-71
2022/10/10 11:10:16;;;;;;;8.13;5.03;;;15.20;99.90;;;;;;5060457;28;20060;-70
2022/10/10 11:13:10;;;;;;;11.32;6.03;;;15.40;99.90;;;;;;5077292;28;20464;-71
2022/10/10 11:15:40;;;;;;;10.10;5.25;;;15.50;99.90;;;;;;5061728;28;20048;-69
2022/10/10 11:18:17;;;;;;;11.85;5.72;;;15.60;99.90;;;;;;5097559;28;20440;-71
2022/10/10 11:20:53;;;;;;;7.43;5.25;;;15.60;99.90;;;;;;5093466;28;20353;-73
2022/10/10 11:23:24;;;;;;;9.27;5.07;;;15.60;99.90;;;;;;5077736;28;20060;-72
2022/10/10 11:26:18;;;;;;;12.45;4.80;;;15.60;99.90;;;;;;5077314;28;20048;-71
2022/10/10 11:28:57;;;;;;;9.65;5.03;;;15.50;99.90;;;;;;5077327;28;20044;-71
2022/10/10 11:31:31;;;;;;;7.53;4.70;;;15.30;99.90;;;;;;5085726;28;20379;-73
2022/10/10 11:34:02;;;;;;;8.98;4.88;;;15.30;99.90;;;;;;5097181;28;20048;-73
2022/10/10 11:36:33;;;;;;;10.65;4.65;;;15.20;99.90;;;;;;5097277;28;20055;-71
2022/10/10 11:39:11;;;;;;;10.35;4.93;;;15.00;99.90;;;;;;5097196;28;20118;-72
2022/10/10 11:41:58;;;;;;;10.13;5.05;;;14.90;99.90;;;;;;5097380;28;20072;-73
2022/10/10 11:44:32;;;;;;;8.50;4.95;;;14.80;99.90;;;;;;5096791;28;20055;-73
2022/10/10 11:47:38;;;;;;;8.80;4.88;;;14.60;99.90;;;;;;5097222;28;20055;-72
2022/10/10 11:50:25;;;;;;;12.43;6.18;;;14.50;99.90;;;;;;5096854;28;20048;-74
2022/10/10 11:53:06;;;;;;;9.45;5.78;;;14.40;99.90;;;;;;5097087;28;20071;-72
2022/10/10 11:56:00;;;;;;;14.27;6.63;;;14.30;99.90;;;;;;5097169;28;20087;-70
2022/10/10 11:58:42;;;;;;;10.13;5.93;;;14.20;99.90;;;;;;5093863;28;20064;-73
2022/10/10 12:01:28;;;;;;;13.25;7.00;;;14.10;99.90;;;;;;5096836;28;20044;-71
2022/10/10 12:03:56;;;;;;;13.23;7.28;;;14.00;99.90;;;;;;5096980;28;20382;-71
2022/10/10 12:06:39;;;;;;;12.48;6.53;;;13.90;99.90;;;;;;5078691;28;20483;-72
2022/10/10 12:09:20;;;;;;;;;;;13.90;99.90;;;;;;5095807;28;20044;-73
2022/10/10 12:11:50;;;;;;;9.82;6.47;;;13.90;99.90;;;;;;5086866;28;19920;-72
2022/10/10 12:14:18;;;;;;;12.23;7.40;;;13.90;99.90;;;;;;5070036;28;20036;-71
2022/10/10 12:16:45;;;;;;;12.65;8.00;;;13.80;99.90;;;;;;5085796;28;20037;-72
2022/10/10 12:19:21;;;;;;;13.70;7.60;;;13.80;99.90;;;;;;5087494;28;20040;-71
2022/10/10 12:22:00;;;;;;;13.85;8.07;;;13.80;99.90;;;;;;5086971;28;20101;-71
2022/10/10 12:24:31;;;;;;;13.82;7.93;;;13.80;99.90;;;;;;5086379;28;20044;-72
2022/10/10 12:26:57;;;;;;;13.65;7.35;;;13.80;99.90;;;;;;5085704;28;20119;-72
2022/10/10 12:30:07;;;;;;;16.25;7.30;;;13.90;99.90;;;;;;5083479;28;20159;-72
2022/10/10 12:32:45;;;;;;;11.68;7.30;;;13.90;99.90;;;;;;5086871;28;20048;-71
2022/10/10 12:35:28;;;;;;;10.85;7.63;;;13.90;99.90;;;;;;5092454;28;20044;-73
2022/10/10 12:38:03;;;;;;;16.85;8.32;;;14.00;99.90;;;;;;5073204;28;20064;-71
2022/10/10 12:40:30;;;;;;;17.60;8.40;;;14.10;99.90;;;;;;5096193;28;20071;-71
2022/10/10 12:42:55;;;;;;;14.07;8.70;;;14.20;99.90;;;;;;5077476;28;20048;-71
2022/10/10 12:45:30;;;;;;;13.25;8.02;;;14.20;99.90;;;;;;5075835;28;20045;-72
2022/10/10 12:48:18;;;;;;;15.02;8.38;;;14.30;99.90;;;;;;5075655;28;20055;-71
2022/10/10 12:50:54;;;;;;;15.95;7.88;;;14.30;99.90;;;;;;5057982;28;20500;-73
2022/10/10 12:53:23;;;;;;;13.93;7.47;;;14.30;99.90;;;;;;5075533;28;20048;-72
2022/10/10 12:55:53;;;;;;;16.20;9.07;;;14.20;99.90;;;;;;5082926;28;20075;-72
2022/10/10 12:58:36;;;;;;;13.32;7.68;;;14.20;99.90;;;;;;5088799;28;20043;-71
2022/10/10 13:01:06;;;;;;;13.25;7.55;;;14.20;99.90;;;;;;5094055;28;20055;-72
2022/10/10 13:03:38;;;;;;;15.35;6.97;;;14.20;99.90;;;;;;5095866;28;20040;-72
2022/10/10 13:06:17;;;;;;;15.43;8.23;;;14.20;99.90;;;;;;5095395;28;20058;-72
2022/10/10 13:08:43;;;;;;;14.65;8.38;;;14.20;99.90;;;;;;5095793;28;20056;-71
2022/10/10 13:11:12;;;;;;;15.57;8.48;;;14.20;99.90;;;;;;5095417;28;20052;-71